Time;durP1;ratioP1;P1;durP2;ratioP2;P2;SDS_P1;SDS_P2;PMS_P1;PMS_P2;Temp;Humidity;BMP_temperature;BMP_pressure;BME280_temperature;BME280_humidity;BME280_pressure;Samples;Min_cycle;Max_cycle;Signal;HPM_P1;HPM_P2
2021/10/23 00:02:21;;;;;;;15.43;9.33;;;;;;;8.10;57.78;99346.30;1782213;78;21628;-62
2021/10/23 00:04:48;;;;;;;18.65;9.43;;;;;;;8.11;57.73;99348.45;1767374;78;21417;-60
2021/10/23 00:07:14;;;;;;;14.18;8.83;;;;;;;8.13;57.72;99333.08;1766494;80;21490;-60
2021/10/23 00:09:41;;;;;;;17.82;9.38;;;;;;;8.12;57.83;99313.52;1767575;78;21714;-62
2021/10/23 00:12:09;;;;;;;16.02;8.98;;;;;;;8.11;57.86;99309.18;1769002;78;21424;-62
2021/10/23 00:14:37;;;;;;;14.05;7.85;;;;;;;8.25;57.37;99313.88;1762724;79;21475;-59
2021/10/23 00:17:04;;;;;;;19.90;8.73;;;;;;;8.24;57.39;99314.34;1771735;78;21569;-60
2021/10/23 00:19:31;;;;;;;18.15;8.33;;;;;;;8.28;57.21;99312.00;1766252;80;21072;-59
2021/10/23 00:21:58;;;;;;;13.62;8.25;;;;;;;8.29;57.06;99312.41;1765546;78;21767;-59
2021/10/23 00:24:25;;;;;;;17.17;8.43;;;;;;;8.28;57.22;99313.31;1762662;78;21506;-59
2021/10/23 00:26:52;;;;;;;17.55;7.85;;;;;;;8.28;57.22;99313.31;1774500;80;21523;-59
2021/10/23 00:29:18;;;;;;;17.55;9.03;;;;;;;8.24;57.12;99313.50;1775545;78;21488;-59
2021/10/23 00:31:45;;;;;;;18.92;8.60;;;;;;;8.18;57.24;99308.88;1784588;78;21482;-59
2021/10/23 00:34:13;;;;;;;16.07;8.25;;;;;;;8.18;57.15;99312.81;1771854;78;21403;-59
2021/10/23 00:36:42;;;;;;;15.83;8.03;;;;;;;8.18;57.13;99310.66;1773489;78;21494;-59
2021/10/23 00:39:08;;;;;;;17.48;8.45;;;;;;;8.17;57.23;99306.32;1773830;78;21484;-59
2021/10/23 00:41:36;;;;;;;14.13;8.13;;;;;;;8.04;57.40;99309.85;1760692;80;21507;-59
2021/10/23 00:44:03;;;;;;;13.62;7.92;;;;;;;7.99;57.59;99304.80;1779420;78;21440;-59
2021/10/23 00:46:32;;;;;;;13.28;7.75;;;;;;;7.98;57.66;99307.01;1759878;78;21569;-59
2021/10/23 00:48:59;;;;;;;19.50;7.75;;;;;;;7.95;57.66;99317.62;1768714;78;21554;-59
2021/10/23 00:51:26;;;;;;;14.18;8.10;;;;;;;7.90;57.76;99320.01;1768442;79;21485;-59
2021/10/23 00:53:52;;;;;;;10.80;6.90;;;;;;;7.85;57.94;99322.78;1766293;78;21454;-59
2021/10/23 00:56:19;;;;;;;11.88;7.17;;;;;;;7.79;57.96;99323.85;1740111;80;21403;-59
2021/10/23 00:58:46;;;;;;;17.67;8.10;;;;;;;7.74;57.95;99336.28;1775392;78;22030;-59
2021/10/23 01:01:13;;;;;;;16.27;7.28;;;;;;;7.64;58.06;99340.11;1773189;79;21444;-59
2021/10/23 01:03:39;;;;;;;14.03;7.60;;;;;;;7.59;58.12;99335.06;1767537;79;21482;-59
2021/10/23 01:06:07;;;;;;;;;;;;;;;7.55;58.14;99336.52;1769972;79;21499;-58
2021/10/23 01:08:34;;;;;;;20.15;7.22;;;;;;;7.51;58.30;99335.77;1779991;78;20484;-60
2021/10/23 01:11:01;;;;;;;16.32;7.85;;;;;;;7.47;58.07;99338.09;1770100;78;22015;-59
2021/10/23 01:13:27;;;;;;;16.32;7.70;;;;;;;7.46;57.89;99335.09;1759052;78;21579;-59
2021/10/23 01:15:54;;;;;;;13.13;7.47;;;;;;;7.37;57.90;99339.34;1767262;80;21531;-59
2021/10/23 01:18:21;;;;;;;11.70;6.95;;;;;;;7.37;57.78;99340.17;1774385;78;21402;-59
2021/10/23 01:20:49;;;;;;;11.10;6.80;;;;;;;7.28;57.82;99338.34;1776749;78;21501;-59
2021/10/23 01:23:16;;;;;;;15.40;7.80;;;;;;;7.25;57.81;99335.81;1764699;80;21668;-60
2021/10/23 01:25:42;;;;;;;15.43;7.83;;;;;;;7.20;57.94;99339.91;1774886;79;21490;-59
2021/10/23 01:28:09;;;;;;;17.85;7.53;;;;;;;7.17;58.21;99342.62;1760952;78;21574;-59
2021/10/23 01:30:36;;;;;;;11.55;7.12;;;;;;;7.13;58.41;99338.40;1773470;78;21157;-60
2021/10/23 01:33:02;;;;;;;12.03;6.95;;;;;;;7.06;58.60;99336.89;1771199;78;21580;-59
2021/10/23 01:35:29;;;;;;;13.13;8.03;;;;;;;7.01;58.69;99333.98;1763968;78;22054;-59
2021/10/23 01:37:56;;;;;;;17.17;8.88;;;;;;;6.98;58.75;99331.45;1761590;80;21058;-60
2021/10/23 01:40:29;;;;;;;14.35;8.68;;;;;;;6.93;58.85;99329.91;1767457;78;21442;-60
2021/10/23 01:42:56;;;;;;;16.95;8.55;;;;;;;6.91;58.88;99326.48;1716229;81;21628;-60
2021/10/23 01:45:22;;;;;;;16.77;8.05;;;;;;;6.86;58.89;99322.73;1754949;78;21422;-61
2021/10/23 01:47:49;;;;;;;17.45;8.23;;;;;;;6.85;59.06;99321.47;1759985;80;21742;-59
2021/10/23 01:50:18;;;;;;;19.15;8.23;;;;;;;6.85;59.36;99319.70;1767157;78;21493;-59
2021/10/23 01:52:47;;;;;;;13.58;7.55;;;;;;;6.78;59.59;99320.38;1772454;80;21598;-60
2021/10/23 01:55:14;;;;;;;18.77;8.80;;;;;;;6.76;59.91;99321.30;1769370;78;21554;-60
2021/10/23 01:57:41;;;;;;;14.18;8.90;;;;;;;6.66;60.21;99327.28;1767868;78;21534;-59
2021/10/23 02:00:10;;;;;;;16.77;9.85;;;;;;;6.60;60.35;99324.88;1765341;80;22024;-59
2021/10/23 02:02:41;;;;;;;20.00;9.60;;;;;;;6.53;60.52;99328.11;1777289;79;21533;-59
2021/10/23 02:05:08;;;;;;;15.10;9.53;;;;;;;6.51;60.70;99326.00;1765604;79;21605;-59
2021/10/23 02:07:35;;;;;;;17.55;9.50;;;;;;;6.45;60.80;99324.90;1755397;78;21617;-59
2021/10/23 02:10:05;;;;;;;15.50;9.63;;;;;;;6.47;61.00;99327.01;1761204;78;21627;-59
2021/10/23 02:12:33;;;;;;;20.75;10.28;;;;;;;6.40;61.13;99330.70;1771170;78;21774;-63
2021/10/23 02:14:59;;;;;;;19.02;10.35;;;;;;;6.35;61.12;99327.41;1724510;82;21706;-59
2021/10/23 02:17:26;;;;;;;17.98;9.80;;;;;;;6.39;61.26;99327.70;1709532;81;21566;-59
2021/10/23 02:19:53;;;;;;;12.80;8.45;;;;;;;6.38;61.50;99334.66;1713032;81;22138;-59
2021/10/23 02:22:20;;;;;;;22.05;9.90;;;;;;;6.30;61.68;99331.91;1729443;81;21478;-59
2021/10/23 02:24:47;;;;;;;15.67;9.17;;;;;;;6.33;61.65;99339.20;1749020;79;21690;-60
2021/10/23 02:27:13;;;;;;;16.00;8.90;;;;;;;6.31;61.61;99339.70;1759073;80;21564;-59
2021/10/23 02:29:40;;;;;;;10.95;7.35;;;;;;;6.33;61.53;99335.70;1724848;81;21614;-60
2021/10/23 02:32:07;;;;;;;18.75;8.28;;;;;;;6.30;61.54;99337.97;1755626;80;21502;-59
2021/10/23 02:34:35;;;;;;;16.48;7.97;;;;;;;6.30;61.46;99344.95;1733132;80;21039;-60
2021/10/23 02:37:02;;;;;;;14.65;8.10;;;;;;;6.32;61.48;99337.92;1757318;80;21802;-59
2021/10/23 02:39:31;;;;;;;13.28;7.42;;;;;;;6.36;61.38;99335.63;1753520;80;21518;-59
2021/10/23 02:41:58;;;;;;;17.50;7.58;;;;;;;6.24;61.69;99340.31;1733730;81;20995;-58
2021/10/23 02:44:24;;;;;;;14.87;6.78;;;;;;;6.24;61.80;99344.23;1750639;80;21493;-58
2021/10/23 02:46:51;;;;;;;11.90;6.50;;;;;;;6.21;61.84;99349.53;1741580;80;21629;-59
2021/10/23 02:49:18;;;;;;;16.40;8.00;;;;;;;6.14;61.97;99353.25;1737026;80;21835;-58
2021/10/23 02:51:45;;;;;;;12.82;7.85;;;;;;;6.08;62.06;99344.27;1755727;80;21478;-58
2021/10/23 02:54:12;;;;;;;16.57;7.92;;;;;;;6.07;62.13;99347.80;1746225;80;21528;-59
2021/10/23 02:56:40;;;;;;;14.70;7.85;;;;;;;6.01;62.19;99345.37;1738401;79;21073;-59
2021/10/23 02:59:06;;;;;;;13.72;7.58;;;;;;;5.97;62.28;99347.64;1731328;81;21588;-58
2021/10/23 03:01:33;;;;;;;12.93;7.50;;;;;;;5.91;62.35;99343.42;1747255;81;21484;-59
2021/10/23 03:04:00;;;;;;;11.67;7.77;;;;;;;5.91;62.40;99343.42;1758376;80;21601;-60
2021/10/23 03:06:27;;;;;;;16.42;7.87;;;;;;;5.88;62.38;99341.34;1737370;80;21511;-60
2021/10/23 03:08:54;;;;;;;12.47;7.30;;;;;;;5.88;62.26;99338.73;1750690;80;21030;-60
2021/10/23 03:11:21;;;;;;;11.97;6.95;;;;;;;5.88;62.18;99334.82;1742449;79;21550;-60
2021/10/23 03:13:47;;;;;;;15.32;7.28;;;;;;;5.86;62.19;99334.89;1733828;81;21732;-60
2021/10/23 03:16:15;;;;;;;;;;;;;;;5.85;62.06;99335.31;1731247;82;21430;-60
2021/10/23 03:18:42;;;;;;;14.30;7.15;;;;;;;5.82;62.22;99337.16;1723885;81;20424;-60
2021/10/23 03:21:09;;;;;;;11.80;7.28;;;;;;;5.76;62.18;99335.57;1730598;81;21497;-59
2021/10/23 03:23:35;;;;;;;15.45;7.83;;;;;;;5.71;62.18;99336.59;1723435;80;21481;-60
2021/10/23 03:26:03;;;;;;;13.15;8.55;;;;;;;5.74;62.22;99333.92;1721858;82;22023;-59
2021/10/23 03:28:32;;;;;;;11.80;6.53;;;;;;;5.73;62.13;99335.68;1747201;80;21530;-60
2021/10/23 03:30:59;;;;;;;14.30;7.20;;;;;;;5.73;62.04;99340.89;1731023;80;21437;-59
2021/10/23 03:33:26;;;;;;;19.12;7.25;;;;;;;5.74;62.10;99349.56;1725060;81;21457;-59
2021/10/23 03:35:53;;;;;;;18.67;7.47;;;;;;;5.68;62.18;99350.59;1722066;80;21466;-58
2021/10/23 03:38:20;;;;;;;13.87;7.03;;;;;;;5.58;62.40;99350.00;1716955;82;22036;-60
2021/10/23 03:40:47;;;;;;;12.15;6.80;;;;;;;5.55;62.53;99349.22;1725196;81;21275;-60
2021/10/23 03:43:14;;;;;;;13.08;7.25;;;;;;;5.50;62.59;99343.27;1727541;80;21484;-60
2021/10/23 03:45:42;;;;;;;11.70;7.70;;;;;;;5.54;62.48;99338.36;1737061;80;21622;-60
2021/10/23 03:48:10;;;;;;;12.70;7.22;;;;;;;5.51;62.38;99344.53;1732350;81;21564;-60
2021/10/23 03:50:37;;;;;;;13.70;7.72;;;;;;;5.50;62.33;99343.27;1730937;81;22100;-60
2021/10/23 03:53:04;;;;;;;13.20;7.45;;;;;;;5.49;62.22;99352.84;1738910;80;21574;-59
2021/10/23 03:55:32;;;;;;;14.45;7.05;;;;;;;5.47;62.25;99362.47;1736138;81;21546;-60
2021/10/23 03:58:00;;;;;;;14.65;7.40;;;;;;;5.41;62.28;99354.36;1728607;81;22234;-60
2021/10/23 04:00:27;;;;;;;15.30;7.55;;;;;;;5.44;62.24;99343.86;1715834;81;21466;-60
2021/10/23 04:02:53;;;;;;;21.23;7.83;;;;;;;5.34;62.52;99347.58;1695280;83;22022;-59
2021/10/23 04:07:42;;;;;;;11.40;7.37;;;;;;;5.59;62.38;99359.52;1758309;79;23550;-59
2021/10/23 04:10:11;;;;;;;18.23;9.00;;;;;;;5.55;62.29;99355.28;1735978;81;21550;-60
2021/10/23 04:12:39;;;;;;;15.50;8.45;;;;;;;5.50;62.34;99349.36;1723697;81;21601;-60
2021/10/23 04:15:07;;;;;;;15.08;8.55;;;;;;;5.37;62.57;99354.03;1734132;81;21512;-60
2021/10/23 04:17:34;;;;;;;13.03;8.93;;;;;;;5.31;62.85;99354.17;1739544;81;21534;-60
2021/10/23 04:20:00;;;;;;;15.30;9.48;;;;;;;5.29;62.75;99355.96;1728684;81;21423;-59
2021/10/23 04:22:27;;;;;;;20.55;10.28;;;;;;;5.26;62.80;99354.76;1741343;81;21533;-60
2021/10/23 04:24:54;;;;;;;16.37;10.60;;;;;;;5.21;62.93;99339.67;1730811;81;21628;-60
2021/10/23 04:27:21;;;;;;;16.77;9.65;;;;;;;5.18;62.83;99343.23;1735655;80;21476;-59
2021/10/23 04:29:48;;;;;;;19.25;9.83;;;;;;;5.14;62.93;99349.42;1743999;80;21483;-60
2021/10/23 04:32:15;;;;;;;19.73;10.48;;;;;;;5.14;62.94;99358.97;1729106;80;21607;-60
2021/10/23 04:34:42;;;;;;;14.95;9.45;;;;;;;5.04;62.98;99370.92;1737051;81;21035;-59
2021/10/23 04:37:09;;;;;;;13.53;9.53;;;;;;;4.95;63.19;99382.86;1741078;81;22124;-59
2021/10/23 04:39:36;;;;;;;15.75;9.38;;;;;;;4.94;63.24;99386.38;1726786;81;21511;-60
2021/10/23 04:42:04;;;;;;;18.40;9.53;;;;;;;4.93;63.21;99385.95;1730549;81;21493;-59
2021/10/23 04:44:31;;;;;;;15.38;9.33;;;;;;;4.90;63.19;99386.05;1737972;81;21644;-59
2021/10/23 04:46:57;;;;;;;16.60;9.60;;;;;;;4.86;63.31;99379.20;1733684;81;21482;-59
2021/10/23 04:49:24;;;;;;;12.68;8.00;;;;;;;4.83;63.29;99385.78;1735219;80;22190;-60
2021/10/23 04:51:51;;;;;;;12.33;8.05;;;;;;;4.87;63.51;99379.14;1741173;81;21432;-60
2021/10/23 04:54:18;;;;;;;11.90;7.72;;;;;;;4.94;63.34;99380.33;1737807;80;21507;-60
2021/10/23 04:56:45;;;;;;;13.70;7.73;;;;;;;4.92;63.34;99384.27;1724489;81;21611;-61
2021/10/23 04:59:12;;;;;;;10.93;7.28;;;;;;;4.92;63.23;99392.53;1718801;81;21520;-59
2021/10/23 05:01:38;;;;;;;12.03;8.13;;;;;;;4.93;63.21;99393.77;1739504;81;21502;-59
2021/10/23 05:04:05;;;;;;;11.55;8.10;;;;;;;4.87;63.23;99392.17;1734196;81;21540;-59
2021/10/23 05:06:31;;;;;;;13.60;7.83;;;;;;;4.84;63.27;99396.59;1729351;80;21068;-59
2021/10/23 05:08:58;;;;;;;17.75;7.87;;;;;;;4.75;63.45;99395.53;1721357;82;21500;-59
2021/10/23 05:11:25;;;;;;;13.68;7.83;;;;;;;4.74;63.64;99401.16;1724832;82;21534;-60
2021/10/23 05:13:51;;;;;;;13.88;8.43;;;;;;;4.70;63.80;99405.19;1722940;82;22074;-59
2021/10/23 05:16:18;;;;;;;12.88;7.95;;;;;;;4.73;63.71;99414.22;1724900;82;21531;-59
2021/10/23 05:18:49;;;;;;;13.72;8.03;;;;;;;4.65;63.85;99420.48;1726507;82;21572;-59
2021/10/23 05:21:17;;;;;;;16.12;8.00;;;;;;;4.68;63.95;99424.75;1722167;82;21642;-61
2021/10/23 05:23:46;;;;;;;16.82;7.50;;;;;;;4.72;63.67;99426.39;1734965;80;21067;-61
2021/10/23 05:26:14;;;;;;;12.82;7.75;;;;;;;4.75;63.98;99430.70;1722999;82;21625;-60
2021/10/23 05:28:40;;;;;;;;;;;;;;;4.80;63.58;99428.82;1735223;82;20998;-60
2021/10/23 05:31:07;;;;;;;15.98;7.95;;;;;;;4.83;63.39;99433.97;1725308;82;20601;-60
2021/10/23 05:33:34;;;;;;;12.28;8.08;;;;;;;4.75;63.46;99438.05;1721629;82;21527;-60
2021/10/23 05:36:00;;;;;;;11.35;7.47;;;;;;;4.79;63.40;99436.24;1715718;81;21554;-60
2021/10/23 05:38:27;;;;;;;15.88;7.90;;;;;;;4.81;63.33;99431.85;1727421;82;22236;-62
2021/10/23 05:40:54;;;;;;;11.55;6.40;;;;;;;4.77;63.37;99431.06;1721107;80;21521;-62
2021/10/23 05:43:21;;;;;;;15.55;7.58;;;;;;;4.82;63.33;99434.84;1726042;81;21590;-64
2021/10/23 05:45:48;;;;;;;16.30;7.70;;;;;;;4.78;63.50;99437.97;1729279;81;21515;-58
2021/10/23 05:48:15;;;;;;;13.78;7.12;;;;;;;4.83;63.25;99443.94;1727436;81;21546;-57
2021/10/23 05:50:42;;;;;;;16.00;7.97;;;;;;;4.82;63.33;99440.94;1725253;80;21585;-57
2021/10/23 05:53:08;;;;;;;13.22;7.40;;;;;;;4.86;63.28;99440.42;1729515;81;21593;-58
2021/10/23 05:55:35;;;;;;;14.28;7.70;;;;;;;4.94;63.18;99444.16;1712284;82;21579;-56
2021/10/23 05:58:02;;;;;;;15.08;8.08;;;;;;;4.97;63.09;99448.85;1728828;80;21595;-60
2021/10/23 06:00:29;;;;;;;21.62;7.87;;;;;;;5.03;63.02;99449.16;1728142;81;21640;-57
2021/10/23 06:03:00;;;;;;;13.15;7.20;;;;;;;5.22;62.94;99449.58;1722410;81;21839;-59
2021/10/23 06:05:26;;;;;;;11.33;7.08;;;;;;;5.50;62.40;99444.54;1728207;81;21674;-58
2021/10/23 06:07:53;;;;;;;13.75;7.28;;;;;;;5.70;61.42;99442.70;1731445;80;21562;-59
2021/10/23 06:10:22;;;;;;;13.58;7.53;;;;;;;5.74;61.26;99441.72;1672984;82;21578;-64
2021/10/23 06:12:49;;;;;;;15.23;7.87;;;;;;;5.87;60.59;99449.23;1734866;80;21084;-63
2021/10/23 06:15:18;;;;;;;14.53;8.68;;;;;;;5.86;60.54;99451.00;1725660;80;21043;-58
2021/10/23 06:17:46;;;;;;;13.85;7.80;;;;;;;5.82;60.53;99457.17;1731849;80;21688;-58
2021/10/23 06:20:13;;;;;;;14.43;7.87;;;;;;;5.85;60.37;99460.56;1735855;80;21797;-59
2021/10/23 06:22:50;;;;;;;15.90;7.03;;;;;;;5.84;60.39;99460.63;1735381;80;21476;-60
2021/10/23 06:25:20;;;;;;;14.55;7.72;;;;;;;5.98;60.19;99466.34;1735898;80;21017;-59
2021/10/23 06:27:47;;;;;;;12.88;7.47;;;;;;;6.14;59.78;99463.31;1733968;80;21601;-60
2021/10/23 06:30:14;;;;;;;13.33;7.33;;;;;;;6.30;59.49;99469.83;1735566;80;21088;-55
2021/10/23 06:32:50;;;;;;;17.87;7.40;;;;;;;6.45;59.26;99467.23;1737930;81;22246;-56
2021/10/23 06:35:17;;;;;;;15.65;7.17;;;;;;;6.58;58.78;99465.13;1725593;81;21182;-56
2021/10/23 06:37:44;;;;;;;14.73;7.28;;;;;;;6.79;58.38;99469.70;1717515;82;21066;-56
2021/10/23 06:40:12;;;;;;;12.45;7.25;;;;;;;6.90;58.05;99462.86;1733155;80;22020;-56
2021/10/23 06:42:40;;;;;;;;;;;;;;;7.06;57.51;99461.06;1736011;81;21590;-55
2021/10/23 06:45:10;;;;;;;16.00;6.60;;;;;;;7.24;56.59;99459.19;1686613;83;20438;-55
2021/10/23 06:47:37;;;;;;;15.85;6.42;;;;;;;7.31;56.71;99455.47;1683926;82;21042;-55
2021/10/23 06:50:08;;;;;;;14.75;6.80;;;;;;;7.47;55.97;99461.51;1748854;80;21499;-56
2021/10/23 06:52:35;;;;;;;12.20;6.33;;;;;;;7.64;55.93;99460.48;1735207;82;21811;-55
2021/10/23 06:55:02;;;;;;;13.70;5.63;;;;;;;7.88;54.81;99464.03;1731285;81;21584;-55
2021/10/23 06:57:29;;;;;;;10.28;5.47;;;;;;;8.03;54.17;99474.43;1740077;81;21038;-56
2021/10/23 06:59:56;;;;;;;11.60;5.72;;;;;;;8.22;53.41;99478.56;1734746;80;21469;-55
2021/10/23 07:02:23;;;;;;;11.55;4.92;;;;;;;8.35;53.18;99475.05;1730813;82;21541;-56
2021/10/23 07:04:50;;;;;;;7.60;4.50;;;;;;;8.46;53.15;99479.94;1739688;80;22024;-55
2021/10/23 07:07:17;;;;;;;11.12;4.35;;;;;;;8.70;51.77;99489.51;1719458;80;21501;-55
2021/10/23 07:09:44;;;;;;;9.45;4.33;;;;;;;8.84;51.03;99484.19;1701881;82;21481;-55
2021/10/23 07:12:12;;;;;;;8.50;4.70;;;;;;;8.92;50.90;99484.74;1706179;82;21591;-57
2021/10/23 07:14:39;;;;;;;10.27;4.50;;;;;;;8.96;50.99;99478.46;1703445;82;21555;-55
2021/10/23 07:17:07;;;;;;;10.35;4.22;;;;;;;9.14;49.72;99482.15;1702668;82;21733;-55
2021/10/23 07:19:34;;;;;;;7.50;3.80;;;;;;;9.18;49.34;99478.95;1700054;82;21566;-58
2021/10/23 07:22:03;;;;;;;7.70;3.85;;;;;;;9.33;48.75;99492.77;1701506;82;28665;-56
2021/10/23 07:24:29;;;;;;;8.15;3.62;;;;;;;9.37;48.82;99490.87;1701001;83;21483;-57
2021/10/23 07:26:56;;;;;;;8.18;3.85;;;;;;;9.44;48.19;99497.12;1707832;82;21548;-57
2021/10/23 07:29:23;;;;;;;4.60;3.50;;;;;;;9.53;47.95;99492.81;1704541;83;22105;-57
2021/10/23 07:31:51;;;;;;;9.03;3.62;;;;;;;9.59;47.76;99502.64;1703081;82;21679;-58
2021/10/23 07:34:20;;;;;;;10.13;4.22;;;;;;;9.73;47.38;99502.47;1709434;82;21128;-63
2021/10/23 07:36:48;;;;;;;8.48;3.50;;;;;;;9.75;47.38;99497.16;1699199;83;21518;-63
2021/10/23 07:39:15;;;;;;;11.65;3.92;;;;;;;9.87;47.20;99499.29;1708259;82;21504;-62
2021/10/23 07:41:43;;;;;;;9.30;2.95;;;;;;;9.90;47.17;99495.20;1695160;82;21787;-62
2021/10/23 07:44:10;;;;;;;;;;;;;;;9.98;46.63;99501.91;1696612;83;21567;-61
2021/10/23 07:46:38;;;;;;;10.38;4.03;;;;;;;10.09;46.27;99506.23;1698310;83;20462;-62
2021/10/23 07:49:07;;;;;;;7.20;4.05;;;;;;;10.07;46.45;99503.67;1695709;83;21613;-63
2021/10/23 07:51:35;;;;;;;7.65;3.80;;;;;;;10.07;46.69;99502.36;1701277;83;21513;-63
2021/10/23 07:54:08;;;;;;;5.37;3.33;;;;;;;10.23;46.20;99504.35;1696400;82;21769;-63
2021/10/23 07:56:37;;;;;;;7.05;3.47;;;;;;;10.25;46.75;99508.61;1699727;82;21567;-63
2021/10/23 07:59:04;;;;;;;5.83;3.20;;;;;;;10.37;46.19;99524.33;1694432;83;21563;-63
2021/10/23 08:01:31;;;;;;;8.33;3.55;;;;;;;10.44;45.62;99516.56;1694437;83;21015;-64
2021/10/23 08:03:59;;;;;;;9.63;3.20;;;;;;;10.50;45.38;99520.23;1703390;82;21458;-62
2021/10/23 08:06:27;;;;;;;8.30;3.35;;;;;;;10.40;45.54;99520.73;1695931;82;21543;-62
2021/10/23 08:08:53;;;;;;;10.28;3.35;;;;;;;10.33;45.62;99514.41;1711621;81;21830;-63
2021/10/23 08:11:22;;;;;;;10.35;4.00;;;;;;;10.43;45.69;99524.52;1721220;80;21467;-63
2021/10/23 08:13:50;;;;;;;8.98;3.80;;;;;;;10.43;45.76;99529.77;1729470;82;21069;-63
2021/10/23 08:16:18;;;;;;;12.60;4.70;;;;;;;10.57;45.14;99527.83;1715346;82;21549;-65
2021/10/23 08:18:45;;;;;;;14.28;4.72;;;;;;;10.48;45.54;99537.00;1720380;82;21641;-65
2021/10/23 08:21:12;;;;;;;9.80;4.37;;;;;;;10.48;46.21;99531.27;1729952;82;21394;-65
2021/10/23 08:23:39;;;;;;;9.23;4.28;;;;;;;10.76;45.42;99540.56;1722598;80;21498;-66
2021/10/23 08:26:06;;;;;;;11.80;4.40;;;;;;;10.88;45.19;99529.47;1730875;82;21495;-65
2021/10/23 08:28:33;;;;;;;7.55;3.90;;;;;;;11.04;44.58;99531.42;1716704;82;20953;-62
2021/10/23 08:31:00;;;;;;;7.62;3.95;;;;;;;11.08;44.13;99531.66;1721234;80;21444;-64
2021/10/23 08:33:28;;;;;;;9.25;4.08;;;;;;;11.10;44.19;99539.86;1725449;82;21626;-65
2021/10/23 08:35:57;;;;;;;8.40;3.58;;;;;;;11.06;45.04;99536.99;1719940;80;21614;-62
2021/10/23 08:38:25;;;;;;;9.80;3.55;;;;;;;11.35;43.67;99528.17;1718678;80;22099;-61
2021/10/23 08:40:53;;;;;;;4.33;2.65;;;;;;;11.30;44.21;99537.63;1721873;82;21586;-61
2021/10/23 08:43:21;;;;;;;4.90;2.52;;;;;;;11.41;43.63;99544.14;1708989;82;22617;-62
2021/10/23 08:45:48;;;;;;;9.65;2.98;;;;;;;11.40;43.37;99539.82;1720462;82;21568;-62
2021/10/23 08:48:16;;;;;;;6.35;2.60;;;;;;;11.43;43.47;99544.48;1706359;80;21569;-62
2021/10/23 08:50:42;;;;;;;12.55;2.80;;;;;;;11.42;43.56;99542.76;1707059;82;21533;-63
2021/10/23 08:53:09;;;;;;;14.98;3.77;;;;;;;11.50;43.37;99550.28;1722179;82;21581;-64
2021/10/23 08:55:38;;;;;;;9.65;3.05;;;;;;;11.51;43.80;99557.27;1681568;82;21066;-63
2021/10/23 08:58:11;;;;;;;4.87;2.98;;;;;;;11.59;44.08;99547.69;1728036;82;21611;-65
2021/10/23 09:00:37;;;;;;;5.70;2.70;;;;;;;11.83;43.02;99545.64;1709518;80;21536;-65
2021/10/23 09:03:05;;;;;;;;;;;;;;;11.85;42.98;99553.00;1732649;80;21490;-65
2021/10/23 09:05:33;;;;;;;;;;;;;;;11.86;42.70;99560.80;1727045;82;20436;-64
2021/10/23 09:08:00;;;;;;;8.18;2.10;;;;;;;11.90;42.34;99584.41;1715155;81;21829;-64
2021/10/23 09:10:30;;;;;;;11.53;2.70;;;;;;;11.85;41.91;99566.17;1713742;82;21537;-64
2021/10/23 09:13:05;;;;;;;7.90;2.10;;;;;;;11.72;42.20;99563.75;1719294;81;21655;-63
2021/10/23 09:15:39;;;;;;;4.28;2.42;;;;;;;11.74;42.07;99565.84;1716435;81;21448;-62
2021/10/23 09:18:07;;;;;;;7.62;2.52;;;;;;;11.67;42.39;99574.02;1718565;81;21499;-65
2021/10/23 09:20:40;;;;;;;6.10;2.33;;;;;;;11.83;41.76;99585.16;1716891;81;21411;-64
2021/10/23 09:23:21;;;;;;;10.38;3.40;;;;;;;11.71;42.41;99579.15;1718344;81;21431;-64
2021/10/23 09:25:51;;;;;;;4.10;1.92;;;;;;;11.82;41.72;99582.11;1720952;81;21527;-63
2021/10/23 09:28:30;;;;;;;5.67;2.60;;;;;;;12.39;40.48;99585.89;1714995;81;21605;-63
2021/10/23 09:31:04;;;;;;;5.15;1.92;;;;;;;12.51;40.18;99573.84;1711537;81;21506;-67
2021/10/23 09:33:32;;;;;;;4.58;2.10;;;;;;;12.26;40.07;99581.70;1711381;81;21771;-66
2021/10/23 09:36:06;;;;;;;4.87;1.85;;;;;;;12.09;40.54;99573.33;1716391;81;21562;-64
2021/10/23 09:38:34;;;;;;;4.05;1.92;;;;;;;12.14;40.77;99587.61;1718717;81;21474;-62
2021/10/23 09:41:24;;;;;;;6.00;1.65;;;;;;;12.27;41.29;99587.38;1717749;82;21030;-61
2021/10/23 09:43:47;;;;;;;5.85;1.85;;;;;;;12.52;40.78;99590.92;1707267;81;21499;-63
2021/10/23 09:46:21;;;;;;;9.70;3.95;;;;;;;12.89;39.35;99581.08;1709953;81;21515;-64
2021/10/23 09:48:52;;;;;;;7.90;2.75;;;;;;;12.96;39.11;99578.51;1706845;81;21566;-63
2021/10/23 09:51:28;;;;;;;8.98;4.00;;;;;;;13.04;39.06;99595.25;1695193;82;21575;-63
2021/10/23 09:54:04;;;;;;;5.33;2.50;;;;;;;13.11;39.20;99583.43;1716699;81;21504;-62
2021/10/23 09:56:38;;;;;;;4.15;2.10;;;;;;;13.15;38.58;99584.96;1701276;82;21551;-64
2021/10/23 09:59:08;;;;;;;4.00;1.90;;;;;;;12.88;39.39;99583.32;1707884;81;21866;-64
2021/10/23 10:01:43;;;;;;;3.85;1.65;;;;;;;12.88;39.15;99582.48;1706357;82;21011;-64
2021/10/23 10:04:13;;;;;;;4.22;1.92;;;;;;;12.86;39.37;99589.16;1715565;82;21626;-66
2021/10/23 10:06:47;;;;;;;3.70;1.70;;;;;;;12.93;38.78;99594.49;1715701;82;21126;-63
2021/10/23 10:09:18;;;;;;;9.35;1.75;;;;;;;12.95;38.85;99593.94;1708390;80;21524;-61
2021/10/23 10:11:48;;;;;;;6.47;1.85;;;;;;;12.88;39.09;99601.80;1716122;81;21738;-62
2021/10/23 10:14:19;;;;;;;9.70;2.10;;;;;;;13.08;38.97;99600.74;1695952;82;21501;-63
2021/10/23 10:16:48;;;;;;;4.42;1.32;;;;;;;13.16;37.47;99605.13;1705330;83;21537;-62
2021/10/23 10:19:19;;;;;;;5.53;1.50;;;;;;;13.11;37.58;99601.91;1707529;81;21560;-64
2021/10/23 10:21:47;;;;;;;8.10;2.00;;;;;;;13.09;37.33;99606.42;1712061;80;21596;-64
2021/10/23 10:24:23;;;;;;;5.78;1.77;;;;;;;12.77;37.58;99567.20;1717837;80;21592;-63
2021/10/23 10:27:07;;;;;;;6.50;2.55;;;;;;;12.94;37.94;99600.61;1708802;81;21452;-66
2021/10/23 10:32:21;;;;;;;3.75;1.80;;;;;;;13.10;36.94;99600.19;1707962;81;21526;-63
2021/10/23 10:42:52;;;;;;;3.00;1.80;;;;;;;13.07;35.88;99620.14;1663562;82;21605;-65
2021/10/23 10:45:41;;;;;;;7.92;1.85;;;;;;;12.84;35.57;99609.48;1703577;80;21550;-68
2021/10/23 10:48:22;;;;;;;38.98;14.50;;;;;;;12.33;36.31;99608.14;1714474;82;21434;-68
2021/10/23 10:51:08;;;;;;;23.42;7.40;;;;;;;11.89;37.03;99615.14;1710296;80;21794;-66
2021/10/23 10:53:52;;;;;;;11.43;3.77;;;;;;;11.73;37.28;99622.06;1709487;82;21645;-67
2021/10/23 10:56:21;;;;;;;11.97;4.72;;;;;;;11.82;37.69;99616.36;1713133;80;21476;-69
2021/10/23 10:58:55;;;;;;;10.50;3.90;;;;;;;12.18;36.79;99622.95;1707921;80;21543;-68
2021/10/23 11:01:32;;;;;;;5.75;1.90;;;;;;;12.35;37.49;99623.42;1696633;81;21406;-64
2021/10/23 11:04:06;;;;;;;4.15;2.17;;;;;;;12.72;37.17;99619.38;1714193;80;21516;-71
2021/10/23 11:06:49;;;;;;;5.55;2.30;;;;;;;13.01;35.90;99614.72;1715659;81;21652;-69
2021/10/23 11:09:25;;;;;;;4.17;1.77;;;;;;;13.20;35.08;99618.58;1708044;81;21594;-66
2021/10/23 11:11:59;;;;;;;2.85;1.67;;;;;;;13.27;34.48;99607.67;1697089;82;21502;-66
2021/10/23 11:14:35;;;;;;;11.38;2.22;;;;;;;13.25;35.00;99626.23;1706957;82;21677;-65
2021/10/23 11:17:13;;;;;;;5.85;1.92;;;;;;;13.34;34.68;99628.88;1699712;82;21539;-63
2021/10/23 11:19:48;;;;;;;1.98;1.30;;;;;;;13.42;32.84;99626.66;1708286;82;21592;-63
2021/10/23 11:22:23;;;;;;;10.58;1.75;;;;;;;13.35;31.08;99621.33;1706761;82;21491;-64
2021/10/23 11:25:03;;;;;;;4.30;1.60;;;;;;;13.28;30.68;99635.31;1699605;82;21390;-66
2021/10/23 11:27:45;;;;;;;3.77;1.98;;;;;;;13.10;31.20;99644.22;1706167;82;21429;-64
2021/10/23 11:30:26;;;;;;;6.08;1.62;;;;;;;13.07;32.00;99637.30;1703938;82;21729;-63
2021/10/23 11:32:58;;;;;;;8.48;1.70;;;;;;;13.17;31.65;99638.53;1704366;83;21582;-62
2021/10/23 11:35:47;;;;;;;2.92;1.40;;;;;;;12.99;32.17;99636.38;1711156;81;21579;-62
2021/10/23 11:38:24;;;;;;;7.60;1.85;;;;;;;13.06;30.82;99636.92;1692386;82;21610;-63
2021/10/23 11:40:55;;;;;;;5.85;1.62;;;;;;;12.94;31.12;99640.20;1692697;82;21487;-62
2021/10/23 11:43:23;;;;;;;3.12;1.90;;;;;;;13.00;31.78;99642.53;1697633;82;21863;-65
2021/10/23 11:46:06;;;;;;;3.33;1.92;;;;;;;12.99;32.58;99654.02;1654428;84;21449;-62
2021/10/23 11:48:35;;;;;;;4.05;1.85;;;;;;;13.04;32.89;99658.59;1664507;83;21440;-62
2021/10/23 11:51:02;;;;;;;;;;;;;;;13.07;33.16;99667.65;1641832;85;21040;-62
2021/10/23 11:53:31;;;;;;;4.40;1.60;;;;;;;13.17;32.89;99653.05;1649038;85;20509;-63
2021/10/23 11:56:05;;;;;;;2.17;1.37;;;;;;;13.47;32.60;99663.38;1607374;86;21793;-62